Arkport, New York
Current Conditions -  °F | °C
As of 7:54 AM on Friday 19 Dec 2014 (Local Time) from KDSV Reporting Station
Overcast Overcast  
Wind Chill: 19°   Ceiling: 2000
Heat Index: 27°   Visibility: 10mi
Dew Point: 19°   Wind: 8mph
Humidity: 72%   Direction: 300°WNW
Pressure: 30.13"   Gusts: NA
Location:  42.39°N, 77.7°W
Report Text: KDSV 191254Z AUTO 30007KT 10SM OVC020 M03/M07 A3013 RMK AO2 SLP219 T10281072
Loading
Personal Weather Stations






























Interactive Weather Map New forecast layout! Learn more

10-Day Weather Forecast

Advertisements
Track Severe Weather on mobile